sensor_id;sensor_type;location;lat;lon;timestamp;temperature;humidity
7349;DHT22;13010;-33.424;-70.614;2022-12-18T00:02:00;21.80;99.90
7349;DHT22;13010;-33.424;-70.614;2022-12-18T00:04:51;21.60;99.90
7349;DHT22;13010;-33.424;-70.614;2022-12-18T00:07:40;21.40;99.90
7349;DHT22;13010;-33.424;-70.614;2022-12-18T00:10:29;21.10;99.90
7349;DHT22;13010;-33.424;-70.614;2022-12-18T00:13:17;20.90;99.90
7349;DHT22;13010;-33.424;-70.614;2022-12-18T00:16:07;20.80;99.90
7349;DHT22;13010;-33.424;-70.614;2022-12-18T00:18:58;20.70;99.90
7349;DHT22;13010;-33.424;-70.614;2022-12-18T00:21:48;20.50;99.90
7349;DHT22;13010;-33.424;-70.614;2022-12-18T00:24:37;20.20;99.90
7349;DHT22;13010;-33.424;-70.614;2022-12-18T00:27:27;20.00;99.90
7349;DHT22;13010;-33.424;-70.614;2022-12-18T00:30:16;19.80;99.90
7349;DHT22;13010;-33.424;-70.614;2022-12-18T00:33:05;19.60;99.90
7349;DHT22;13010;-33.424;-70.614;2022-12-18T00:35:54;19.40;99.90
7349;DHT22;13010;-33.424;-70.614;2022-12-18T00:38:45;19.20;99.90
7349;DHT22;13010;-33.424;-70.614;2022-12-18T00:41:34;19.20;99.90
7349;DHT22;13010;-33.424;-70.614;2022-12-18T00:44:45;19.00;99.90
7349;DHT22;13010;-33.424;-70.614;2022-12-18T00:47:34;19.00;99.90
7349;DHT22;13010;-33.424;-70.614;2022-12-18T00:50:24;18.80;99.90
7349;DHT22;13010;-33.424;-70.614;2022-12-18T00:53:13;18.70;99.90
7349;DHT22;13010;-33.424;-70.614;2022-12-18T00:56:04;18.50;99.90
7349;DHT22;13010;-33.424;-70.614;2022-12-18T00:58:54;18.30;99.90
7349;DHT22;13010;-33.424;-70.614;2022-12-18T01:01:42;18.10;99.90
7349;DHT22;13010;-33.424;-70.614;2022-12-18T01:04:33;17.60;99.90
7349;DHT22;13010;-33.424;-70.614;2022-12-18T01:07:21;18.00;99.90
7349;DHT22;13010;-33.424;-70.614;2022-12-18T01:10:12;18.40;99.90
7349;DHT22;13010;-33.424;-70.614;2022-12-18T01:13:03;18.60;99.90
7349;DHT22;13010;-33.424;-70.614;2022-12-18T01:15:52;18.50;99.90
7349;DHT22;13010;-33.424;-70.614;2022-12-18T01:18:42;18.20;99.90
7349;DHT22;13010;-33.424;-70.614;2022-12-18T01:21:31;18.10;99.90
7349;DHT22;13010;-33.424;-70.614;2022-12-18T01:24:20;18.10;99.90
7349;DHT22;13010;-33.424;-70.614;2022-12-18T01:27:08;18.30;99.90
7349;DHT22;13010;-33.424;-70.614;2022-12-18T01:29:59;18.20;99.90
7349;DHT22;13010;-33.424;-70.614;2022-12-18T01:32:49;18.00;99.90
7349;DHT22;13010;-33.424;-70.614;2022-12-18T01:35:41;17.50;99.90
7349;DHT22;13010;-33.424;-70.614;2022-12-18T01:38:30;17.00;99.90
7349;DHT22;13010;-33.424;-70.614;2022-12-18T01:41:21;16.70;99.90
7349;DHT22;13010;-33.424;-70.614;2022-12-18T01:47:36;16.40;99.90
7349;DHT22;13010;-33.424;-70.614;2022-12-18T01:50:30;16.10;99.90
7349;DHT22;13010;-33.424;-70.614;2022-12-18T01:53:22;15.90;99.90
7349;DHT22;13010;-33.424;-70.614;2022-12-18T01:56:15;16.20;99.90
7349;DHT22;13010;-33.424;-70.614;2022-12-18T01:59:05;16.90;99.90
7349;DHT22;13010;-33.424;-70.614;2022-12-18T02:02:00;17.80;99.90
7349;DHT22;13010;-33.424;-70.614;2022-12-18T02:04:51;17.70;99.90
7349;DHT22;13010;-33.424;-70.614;2022-12-18T02:07:45;17.70;99.90
7349;DHT22;13010;-33.424;-70.614;2022-12-18T02:10:44;17.70;99.90
7349;DHT22;13010;-33.424;-70.614;2022-12-18T02:13:40;17.80;99.90
7349;DHT22;13010;-33.424;-70.614;2022-12-18T02:16:37;17.90;99.90
7349;DHT22;13010;-33.424;-70.614;2022-12-18T02:19:52;18.20;99.90
7349;DHT22;13010;-33.424;-70.614;2022-12-18T02:22:55;18.00;99.90
7349;DHT22;13010;-33.424;-70.614;2022-12-18T02:26:05;17.50;99.90
7349;DHT22;13010;-33.424;-70.614;2022-12-18T02:28:58;16.80;99.90
7349;DHT22;13010;-33.424;-70.614;2022-12-18T02:31:51;16.70;99.90
7349;DHT22;13010;-33.424;-70.614;2022-12-18T02:34:42;17.00;99.90
7349;DHT22;13010;-33.424;-70.614;2022-12-18T02:37:32;17.00;99.90
7349;DHT22;13010;-33.424;-70.614;2022-12-18T02:40:24;17.20;99.90
7349;DHT22;13010;-33.424;-70.614;2022-12-18T02:43:16;16.90;99.90
7349;DHT22;13010;-33.424;-70.614;2022-12-18T02:46:25;16.50;99.90
7349;DHT22;13010;-33.424;-70.614;2022-12-18T02:49:29;16.50;99.90
7349;DHT22;13010;-33.424;-70.614;2022-12-18T02:52:27;16.40;99.90
7349;DHT22;13010;-33.424;-70.614;2022-12-18T02:55:28;16.40;99.90
7349;DHT22;13010;-33.424;-70.614;2022-12-18T02:58:20;16.50;99.90
7349;DHT22;13010;-33.424;-70.614;2022-12-18T03:01:18;16.60;99.90
7349;DHT22;13010;-33.424;-70.614;2022-12-18T03:04:09;16.40;99.90
7349;DHT22;13010;-33.424;-70.614;2022-12-18T03:07:02;16.30;99.90
7349;DHT22;13010;-33.424;-70.614;2022-12-18T03:09:54;16.10;99.90
7349;DHT22;13010;-33.424;-70.614;2022-12-18T03:12:46;16.10;99.90
7349;DHT22;13010;-33.424;-70.614;2022-12-18T03:15:40;16.00;99.90
7349;DHT22;13010;-33.424;-70.614;2022-12-18T03:18:34;16.10;99.90
7349;DHT22;13010;-33.424;-70.614;2022-12-18T03:21:32;16.10;99.90
7349;DHT22;13010;-33.424;-70.614;2022-12-18T03:24:24;16.00;99.90
7349;DHT22;13010;-33.424;-70.614;2022-12-18T03:27:17;15.70;99.90
7349;DHT22;13010;-33.424;-70.614;2022-12-18T03:30:09;15.20;99.90
7349;DHT22;13010;-33.424;-70.614;2022-12-18T03:33:05;14.80;99.90
7349;DHT22;13010;-33.424;-70.614;2022-12-18T03:35:54;14.50;99.90
7349;DHT22;13010;-33.424;-70.614;2022-12-18T03:38:43;14.30;99.90
7349;DHT22;13010;-33.424;-70.614;2022-12-18T03:41:33;14.20;99.90
7349;DHT22;13010;-33.424;-70.614;2022-12-18T03:44:29;14.10;99.90
7349;DHT22;13010;-33.424;-70.614;2022-12-18T03:47:25;13.90;99.90
7349;DHT22;13010;-33.424;-70.614;2022-12-18T03:50:19;13.60;99.90
7349;DHT22;13010;-33.424;-70.614;2022-12-18T03:53:17;13.30;99.90
7349;DHT22;13010;-33.424;-70.614;2022-12-18T03:56:09;13.30;99.90
7349;DHT22;13010;-33.424;-70.614;2022-12-18T03:58:59;13.50;99.90
7349;DHT22;13010;-33.424;-70.614;2022-12-18T04:01:50;13.60;99.90
7349;DHT22;13010;-33.424;-70.614;2022-12-18T04:04:41;13.70;99.90
7349;DHT22;13010;-33.424;-70.614;2022-12-18T04:07:33;13.70;99.90
7349;DHT22;13010;-33.424;-70.614;2022-12-18T04:10:22;13.30;99.90
7349;DHT22;13010;-33.424;-70.614;2022-12-18T04:13:11;13.10;99.90
7349;DHT22;13010;-33.424;-70.614;2022-12-18T04:16:00;13.00;99.90
7349;DHT22;13010;-33.424;-70.614;2022-12-18T04:18:49;13.20;99.90
7349;DHT22;13010;-33.424;-70.614;2022-12-18T04:21:38;13.30;99.90
7349;DHT22;13010;-33.424;-70.614;2022-12-18T04:24:28;13.40;99.90
7349;DHT22;13010;-33.424;-70.614;2022-12-18T04:27:17;13.30;99.90
7349;DHT22;13010;-33.424;-70.614;2022-12-18T04:30:06;13.10;99.90
7349;DHT22;13010;-33.424;-70.614;2022-12-18T04:32:55;13.00;99.90
7349;DHT22;13010;-33.424;-70.614;2022-12-18T04:35:44;12.90;99.90
7349;DHT22;13010;-33.424;-70.614;2022-12-18T04:38:33;13.20;99.90
7349;DHT22;13010;-33.424;-70.614;2022-12-18T04:41:24;12.90;99.90
7349;DHT22;13010;-33.424;-70.614;2022-12-18T04:44:13;12.80;99.90
7349;DHT22;13010;-33.424;-70.614;2022-12-18T04:47:01;12.90;99.90
7349;DHT22;13010;-33.424;-70.614;2022-12-18T04:49:50;12.80;99.90
7349;DHT22;13010;-33.424;-70.614;2022-12-18T04:52:39;13.80;99.90
7349;DHT22;13010;-33.424;-70.614;2022-12-18T04:55:29;14.00;99.90
7349;DHT22;13010;-33.424;-70.614;2022-12-18T04:58:19;13.90;99.90
7349;DHT22;13010;-33.424;-70.614;2022-12-18T05:01:09;13.60;99.90
7349;DHT22;13010;-33.424;-70.614;2022-12-18T05:03:58;13.50;99.90
7349;DHT22;13010;-33.424;-70.614;2022-12-18T05:06:46;13.40;99.90
7349;DHT22;13010;-33.424;-70.614;2022-12-18T05:09:35;13.60;99.90
7349;DHT22;13010;-33.424;-70.614;2022-12-18T05:12:25;14.00;99.90
7349;DHT22;13010;-33.424;-70.614;2022-12-18T05:15:16;13.70;99.90
7349;DHT22;13010;-33.424;-70.614;2022-12-18T05:18:05;13.50;99.90
7349;DHT22;13010;-33.424;-70.614;2022-12-18T05:20:54;13.40;99.90
7349;DHT22;13010;-33.424;-70.614;2022-12-18T05:23:43;13.20;99.90
7349;DHT22;13010;-33.424;-70.614;2022-12-18T05:26:32;13.00;99.90
7349;DHT22;13010;-33.424;-70.614;2022-12-18T05:29:21;12.70;99.90
7349;DHT22;13010;-33.424;-70.614;2022-12-18T05:32:12;12.50;99.90
7349;DHT22;13010;-33.424;-70.614;2022-12-18T05:35:00;12.20;99.90
7349;DHT22;13010;-33.424;-70.614;2022-12-18T05:37:49;11.90;99.90
7349;DHT22;13010;-33.424;-70.614;2022-12-18T05:40:41;12.10;99.90
7349;DHT22;13010;-33.424;-70.614;2022-12-18T05:43:30;12.30;99.90
7349;DHT22;13010;-33.424;-70.614;2022-12-18T05:46:19;12.30;99.90
7349;DHT22;13010;-33.424;-70.614;2022-12-18T05:49:09;11.90;99.90
7349;DHT22;13010;-33.424;-70.614;2022-12-18T05:51:59;11.90;99.90
7349;DHT22;13010;-33.424;-70.614;2022-12-18T05:54:48;12.10;99.90
7349;DHT22;13010;-33.424;-70.614;2022-12-18T05:57:42;12.10;99.90
7349;DHT22;13010;-33.424;-70.614;2022-12-18T06:00:31;12.00;99.90
7349;DHT22;13010;-33.424;-70.614;2022-12-18T06:03:20;11.50;99.90
7349;DHT22;13010;-33.424;-70.614;2022-12-18T06:06:16;11.30;99.90
7349;DHT22;13010;-33.424;-70.614;2022-12-18T06:09:06;11.20;99.90
7349;DHT22;13010;-33.424;-70.614;2022-12-18T06:11:55;10.90;99.90
7349;DHT22;13010;-33.424;-70.614;2022-12-18T06:14:44;10.70;99.90
7349;DHT22;13010;-33.424;-70.614;2022-12-18T06:17:33;10.70;99.90
7349;DHT22;13010;-33.424;-70.614;2022-12-18T06:20:22;10.80;99.90
7349;DHT22;13010;-33.424;-70.614;2022-12-18T06:23:13;10.80;99.90
7349;DHT22;13010;-33.424;-70.614;2022-12-18T06:26:05;10.50;99.90
7349;DHT22;13010;-33.424;-70.614;2022-12-18T06:28:54;10.90;99.90
7349;DHT22;13010;-33.424;-70.614;2022-12-18T06:31:43;11.20;99.90
7349;DHT22;13010;-33.424;-70.614;2022-12-18T06:34:31;11.30;99.90
7349;DHT22;13010;-33.424;-70.614;2022-12-18T06:37:20;11.40;99.90
7349;DHT22;13010;-33.424;-70.614;2022-12-18T06:40:12;11.50;99.90
7349;DHT22;13010;-33.424;-70.614;2022-12-18T06:43:01;11.30;99.90
7349;DHT22;13010;-33.424;-70.614;2022-12-18T06:45:50;11.10;99.90
7349;DHT22;13010;-33.424;-70.614;2022-12-18T06:48:39;11.00;99.90
7349;DHT22;13010;-33.424;-70.614;2022-12-18T06:51:28;11.00;99.90
7349;DHT22;13010;-33.424;-70.614;2022-12-18T06:54:17;10.80;99.90
7349;DHT22;13010;-33.424;-70.614;2022-12-18T06:57:08;10.60;99.90
7349;DHT22;13010;-33.424;-70.614;2022-12-18T06:59:57;10.80;99.90
7349;DHT22;13010;-33.424;-70.614;2022-12-18T07:02:45;10.90;99.90
7349;DHT22;13010;-33.424;-70.614;2022-12-18T07:05:34;11.00;99.90
7349;DHT22;13010;-33.424;-70.614;2022-12-18T07:08:23;10.70;99.90
7349;DHT22;13010;-33.424;-70.614;2022-12-18T07:11:12;10.50;99.90
7349;DHT22;13010;-33.424;-70.614;2022-12-18T07:14:02;10.40;99.90
7349;DHT22;13010;-33.424;-70.614;2022-12-18T07:16:51;10.30;99.90
7349;DHT22;13010;-33.424;-70.614;2022-12-18T07:19:40;10.30;99.90
7349;DHT22;13010;-33.424;-70.614;2022-12-18T07:22:29;10.20;99.90
7349;DHT22;13010;-33.424;-70.614;2022-12-18T07:25:18;10.10;99.90
7349;DHT22;13010;-33.424;-70.614;2022-12-18T07:28:07;10.00;99.90
7349;DHT22;13010;-33.424;-70.614;2022-12-18T07:30:57;10.00;99.90
7349;DHT22;13010;-33.424;-70.614;2022-12-18T07:33:47;10.30;99.90
7349;DHT22;13010;-33.424;-70.614;2022-12-18T07:36:36;10.40;99.90
7349;DHT22;13010;-33.424;-70.614;2022-12-18T07:39:25;10.20;99.90
7349;DHT22;13010;-33.424;-70.614;2022-12-18T07:42:14;10.00;99.90
7349;DHT22;13010;-33.424;-70.614;2022-12-18T07:45:21;9.70;99.90
7349;DHT22;13010;-33.424;-70.614;2022-12-18T07:48:12;9.80;99.90
7349;DHT22;13010;-33.424;-70.614;2022-12-18T07:51:02;10.10;99.90
7349;DHT22;13010;-33.424;-70.614;2022-12-18T07:53:51;10.40;99.90
7349;DHT22;13010;-33.424;-70.614;2022-12-18T07:56:39;10.50;99.90
7349;DHT22;13010;-33.424;-70.614;2022-12-18T07:59:28;10.50;99.90
7349;DHT22;13010;-33.424;-70.614;2022-12-18T08:02:17;10.40;99.90
7349;DHT22;13010;-33.424;-70.614;2022-12-18T08:05:08;10.20;99.90
7349;DHT22;13010;-33.424;-70.614;2022-12-18T08:07:59;10.10;99.90
7349;DHT22;13010;-33.424;-70.614;2022-12-18T08:10:47;10.00;99.90
7349;DHT22;13010;-33.424;-70.614;2022-12-18T08:13:36;9.80;99.90
7349;DHT22;13010;-33.424;-70.614;2022-12-18T08:16:25;9.80;99.90
7349;DHT22;13010;-33.424;-70.614;2022-12-18T08:19:16;9.90;99.90
7349;DHT22;13010;-33.424;-70.614;2022-12-18T08:22:07;10.10;99.90
7349;DHT22;13010;-33.424;-70.614;2022-12-18T08:24:56;10.20;99.90
7349;DHT22;13010;-33.424;-70.614;2022-12-18T08:27:46;10.20;99.90
7349;DHT22;13010;-33.424;-70.614;2022-12-18T08:30:35;10.40;99.90
7349;DHT22;13010;-33.424;-70.614;2022-12-18T08:33:24;10.40;99.90
7349;DHT22;13010;-33.424;-70.614;2022-12-18T08:36:12;10.40;99.90
7349;DHT22;13010;-33.424;-70.614;2022-12-18T08:39:03;10.50;99.90
7349;DHT22;13010;-33.424;-70.614;2022-12-18T08:41:52;10.60;99.90
7349;DHT22;13010;-33.424;-70.614;2022-12-18T08:44:53;10.30;99.90
7349;DHT22;13010;-33.424;-70.614;2022-12-18T08:47:42;10.00;99.90
7349;DHT22;13010;-33.424;-70.614;2022-12-18T08:50:31;10.00;99.90
7349;DHT22;13010;-33.424;-70.614;2022-12-18T08:53:21;10.10;99.90
7349;DHT22;13010;-33.424;-70.614;2022-12-18T08:56:12;9.90;99.90
7349;DHT22;13010;-33.424;-70.614;2022-12-18T08:59:01;9.60;99.90
7349;DHT22;13010;-33.424;-70.614;2022-12-18T09:01:50;9.50;99.90
7349;DHT22;13010;-33.424;-70.614;2022-12-18T09:04:39;9.50;99.90
7349;DHT22;13010;-33.424;-70.614;2022-12-18T09:07:30;9.70;99.90
7349;DHT22;13010;-33.424;-70.614;2022-12-18T09:10:19;9.70;99.90
7349;DHT22;13010;-33.424;-70.614;2022-12-18T09:13:10;9.60;99.90
7349;DHT22;13010;-33.424;-70.614;2022-12-18T09:15:59;9.50;99.90
7349;DHT22;13010;-33.424;-70.614;2022-12-18T09:18:48;9.60;99.90
7349;DHT22;13010;-33.424;-70.614;2022-12-18T09:21:37;9.60;99.90
7349;DHT22;13010;-33.424;-70.614;2022-12-18T09:24:27;9.40;99.90
7349;DHT22;13010;-33.424;-70.614;2022-12-18T09:27:16;9.20;99.90
7349;DHT22;13010;-33.424;-70.614;2022-12-18T09:30:08;9.00;99.90
7349;DHT22;13010;-33.424;-70.614;2022-12-18T09:32:57;8.90;99.90
7349;DHT22;13010;-33.424;-70.614;2022-12-18T09:35:46;8.80;99.90
7349;DHT22;13010;-33.424;-70.614;2022-12-18T09:38:35;9.20;99.90
7349;DHT22;13010;-33.424;-70.614;2022-12-18T09:41:36;9.60;99.90
7349;DHT22;13010;-33.424;-70.614;2022-12-18T09:44:27;9.90;99.90
7349;DHT22;13010;-33.424;-70.614;2022-12-18T09:47:22;10.40;99.90
7349;DHT22;13010;-33.424;-70.614;2022-12-18T09:50:23;10.80;99.90
7349;DHT22;13010;-33.424;-70.614;2022-12-18T09:53:17;11.30;99.90
